Pahrump, Nevada Weather observations

Data are for observation ending at time listed.
 Day   Time    Ave.   Ave.  Ave.  Vector   Max.   Stn.    Total    Solar   Ave.  
  of    of     Air    Rel.  Wind   Wind    Wind   Baro.  Precip.   Rad.    Soil  
Year   Day     Temp.  Hum.  Speed  Dir.    Gust   Pres.                    Temp. 
2016   (PST)    F      %     mph   deg.    mph     mb.     in.     W/m2     F   
------------------------------------------------------------------------------
 269    6:40   64.8    24    1.7   186      3.7   928.5    0.00     165    73.5
 269    6:50   64.1    25    2.1   256      5.1   928.7    0.00     199    73.5
 269    7:00   63.0    25    2.3   285      6.4   929.1    0.00     235    73.6
 269    7:10   63.7    24    1.6   145      3.9   929.4    0.00     272    73.8
 269    7:20   64.8    24    2.0   171      4.1   929.5    0.00     311    73.9
 269    7:30   66.2    23    2.3   178      3.9   929.6    0.00     351    74.2
 269    7:40   67.9    22    1.8   226      3.7   929.8    0.00     389    74.4
 269    7:50   69.6    21    2.2   197      4.8   930.0    0.00     427    74.6
 269    8:00   70.8    19    2.4   186      4.6   930.2    0.00     464    74.8
 269    8:10   72.0    19    2.4   200      5.4   930.5    0.00     499    74.9
 269    8:20   72.1    18    3.1   182      6.1   930.6    0.00     535    75.0
 269    8:30   73.2    17    1.6   172      3.9   930.7    0.00     566    75.1
 269    8:40   75.0    16    1.3    16      3.6   930.9    0.00     592    75.1
 269    8:50   74.9    16    1.7   319      4.2   931.0    0.00     620    75.2
 269    9:00   74.2    17    2.6   229      4.8   931.0    0.00     653    75.2
 269    9:10   75.5    16    1.9   171      4.6   931.1    0.00     682    75.3
 269    9:20   76.8    15    2.5   125      4.5   931.2    0.00     705    75.4
 269    9:30   76.5    15    3.5   160      6.0   931.4    0.00     735    75.4
 269    9:40   76.8    15    4.2   171      7.3   931.4    0.00     762    75.5
 269    9:50   77.8    14    3.9   176      7.0   931.4    0.00     784    75.6
 269   10:00   79.1    14    4.3   188      7.5   931.3    0.00     800    75.7
 269   10:10   80.2    13    4.3   192     11.0   931.3    0.00     817    75.7
 269   10:20   81.0    13    3.5   204      7.0   931.3    0.00     537    75.8
 269   10:30   81.4    12    3.5   185      8.1   931.3    0.00     526    75.8
 269   10:40   81.7    12    3.8   214      8.6   931.2    0.00     860    75.9
 269   10:50   81.8    12    3.4   178      9.1   931.0    0.00     869    76.0
 269   11:00   82.2    12    5.1   181      9.2   930.9    0.00     808    76.1
 269   11:10   82.7    11    2.9   239      7.7   930.9    0.00     889    76.3
 269   11:20   83.2    11    3.1   202      7.8   931.0    0.00     891    76.6
 269   11:30   83.9    10    5.1   178      8.9   930.9    0.00     895    76.9
 269   11:40   84.1    10    3.4   170      6.9   930.9    0.00     897    77.4
 269   11:50   85.1    10    2.9   197      6.4   930.9    0.00     892    78.1
 269   12:00   84.8    10    2.9   223      7.1   930.9    0.00     891    78.9
 269   12:10   85.5    10    2.4   116      5.4   930.8    0.00     886    79.6
 269   12:20   86.1    10    3.7   194      6.8   930.7    0.00     881    80.4
 269   12:30   85.3    10    2.8   163      5.9   930.7    0.00     874    81.2
 269   12:40   86.3    10    1.9   132      4.5   930.6    0.00     864    81.9
 269   12:50   87.2    10    3.2   291      9.2   930.5    0.00     850    82.5
 269   13:00   85.2    10    4.4   275      7.7   930.3    0.00     841    83.2
 269   13:10   85.6    10    3.7   227      7.9   930.1    0.00     828    83.8
 269   13:20   86.8    10    3.2   175      7.5   929.9    0.00     811    84.3
 269   13:30   87.0     9    3.0   194      6.5   929.8    0.00     792    84.8
 269   13:40   86.7    10    3.7   260      6.6   929.8    0.00     771    85.3
 269   13:50   87.2     9    1.9   307      5.2   929.7    0.00     748    85.7
 269   14:00   88.0     9    3.7   208      7.5   929.6    0.00     727    86.1
 269   14:10   87.4     9    2.6   142      6.4   929.5    0.00     704    86.4
 269   14:20   88.6     9    3.1   218      8.0   929.5    0.00     676    86.7
 269   14:30   88.7     9    3.0   255      7.5   929.4    0.00     650    87.0
 269   14:40   88.2     9    4.1   188     10.1   929.2    0.00     621    87.2
 269   14:50   87.6     9    4.6   149      7.4   929.1    0.00     595    87.4
 269   15:00   88.6     9    2.3   257      5.3   929.0    0.00     562    87.5
 269   15:10   88.8     9    2.6   114      5.6   928.9    0.00     529    87.5
 269   15:20   89.3     9    3.2   235      7.0   928.8    0.00     496    87.5
 269   15:30   90.4     9    1.7   240      4.2   928.7    0.00     461    87.4
 269   15:40   91.9     8    1.1   241      3.5   928.6    0.00     424    87.4
 269   15:50   90.9     9    1.8   274      3.5   928.5    0.00     389    87.3
 269   16:00   90.2     9    1.9   299      4.7   928.3    0.00     353    87.2
 269   16:10   90.2     9    2.0   209      3.6   928.2    0.00     314    87.2
 269   16:20   90.6     8    1.0   263      3.7   928.1    0.00     275    87.0
 269   16:30   90.1     9    1.5   263      3.3   928.0    0.00     243    86.9
 269   16:40   90.4     9    1.0   302      2.9   927.8    0.00     205    86.7
 269   16:50   90.2     9    1.0   302      3.1   927.7    0.00     168    86.6
 269   17:00   87.3    10    0.8   278      2.1   927.6    0.00      30    86.4
 269   17:10   85.4    11    0.9   248      1.9   927.5    0.00      19    86.2
 269   17:20   84.8    10    0.8   229      1.2   927.3    0.00      16    85.9
 269   17:30   84.2    10    0.3   222      1.1   927.1    0.00      11    85.7
 269   17:40   83.0    12    0.1   124      1.3   927.0    0.00       5    85.4
 269   17:50   82.0    12    0.5   129      1.5   926.9    0.00       3    85.2
 269   18:00   81.6    11    0.2   149      1.8   926.8    0.00       1    84.9
 269   18:10   81.3    11    1.2   113      2.1   926.8    0.00       0    84.7
 269   18:20   80.7    12    0.6    24      1.5   926.8    0.00       0    84.4
 269   18:30   79.6    12    1.0   121      2.0   926.8    0.00       0    84.2
 269   18:40   79.6    11    3.8    96      7.5   926.8    0.00       0    83.9
 269   18:50   80.5    11    2.4    90      6.1   926.9    0.00       0    83.7
 269   19:00   78.6    11    3.3   111      7.2   926.9    0.00       0    83.4
 269   19:10   76.9    12    1.6   178      3.1   927.0    0.00       0    83.2
 269   19:20   77.2    12    1.5   154      3.5   927.0    0.00       0    83.0
 269   19:30   76.8    12    0.5   286      3.4   927.0    0.00       0    82.8
 269   19:40   75.6    13    2.1   329      4.6   927.0    0.00       0    82.7
 269   19:50   76.6    12    3.6    74      6.8   927.1    0.00       0    82.4
 269   20:00   77.4    12    4.1   108      6.0   927.1    0.00       0    82.3
 269   20:10   77.0    13    4.7   187      8.8   927.2    0.00       0    82.1
 269   20:20   77.1    13    2.8   176      6.7   927.3    0.00       0    81.9
 269   20:30   75.8    13    2.6   153      4.8   927.4    0.00       0    81.7
 269   20:40   75.4    13    3.1   167      5.4   927.4    0.00       0    81.5
 269   20:50   75.0    13    3.2   190      6.6   927.3    0.00       0    81.4
 269   21:00   73.9    13    2.9   175      5.6   927.3    0.00       0    81.2
 269   21:10   72.8    14    2.6   126      5.6   927.2    0.00       0    81.1
 269   21:20   72.8    14    3.2   104      6.7   927.2    0.00       0    80.9
 269   21:30   72.7    14    1.8   172      3.3   927.2    0.00       0    80.8
 269   21:40   73.5    13    2.5   112      3.7   927.1    0.00       0    80.6
 269   21:50   72.2    14    1.7    22      3.7   927.1    0.00       0    80.5
 269   22:00   71.5    14    3.8    96      8.6   927.2    0.00       0    80.3
 269   22:10   72.6    14    0.9    68      3.4   927.1    0.00       0    80.2
 269   22:20   72.1    14    3.0   137      5.4   927.1    0.00       0    80.0
 269   22:30   71.7    14    1.5   120      2.4   927.1    0.00       0    79.9
 269   22:40   70.7    15    1.6    57      4.1   927.1    0.00       0    79.8
 269   22:50   69.4    15    1.3    97      4.3   927.1    0.00       0    79.6
 269   23:00   69.4    16    1.5    92      5.1   927.1    0.00       0    79.5
 269   23:10   69.1    16    1.8    87      3.4   927.1    0.00       0    79.3
 269   23:20   69.1    16    1.1    81      3.0   927.0    0.00       0    79.2
 269   23:30   68.6    16    1.1   114      2.5   926.9    0.00       0    79.0
 269   23:40   68.6    16    1.8   130      2.9   926.8    0.00       0    78.9
 269   23:50   68.6    16    2.5   108      4.2   926.7    0.00       0    78.7
 270    0:00   69.2    16    2.3    96      4.0   926.7    0.00       0    78.6
 270    0:10   69.3    17    1.8    46      4.0   926.6    0.00       0    78.5
 270    0:20   68.5    17    0.2    93      1.5   926.5    0.00       0    78.3
 270    0:30   67.2    19    0.9    11      2.6   926.5    0.00       0    78.2
 270    0:40   65.6    19    1.9    64      4.9   926.5    0.00       0    78.1
 270    0:50   65.8    19    1.8   112      3.7   926.4    0.00       0    77.9
 270    1:00   66.8    18    3.8   119      5.3   926.4    0.00       0    77.8
 270    1:10   67.8    17    2.2   113      5.6   926.4    0.00       0    77.7
 270    1:20   67.7    18    1.1    99      2.3   926.3    0.00       0    77.6
 270    1:30   67.4    18    1.2   111      3.8   926.2    0.00       0    77.4
 270    1:40   66.8    18    1.3   159      2.9   926.2    0.00       0    77.3
 270    1:50   66.4    19    1.4   153      2.9   926.2    0.00       0    77.2
 270    2:00   65.8    20    1.0   259      2.3   926.2    0.00       0    77.1
 270    2:10   64.8    21    1.9    48      4.1   926.1    0.00       0    77.0
 270    2:20   64.2    22    1.1   149      2.0   926.1    0.00       0    76.9
 270    2:30   64.5    21    2.1   132      5.1   926.0    0.00       0    76.7
 270    2:40   64.7    20    3.6   118      5.5   926.0    0.00       0    76.6
 270    2:50   63.7    22    1.9   263      6.0   926.1    0.00       0    76.5
 270    3:00   61.9    24    0.6   283      2.0   926.2    0.00       0    76.4
 270    3:10   61.1    25    0.4    89      1.0   926.2    0.00       0    76.3
 270    3:20   61.7    24    1.3    99      3.4   926.0    0.00       0    76.1
 270    3:30   62.9    22    1.8    80      3.9   926.0    0.00       0    76.0
 270    3:40   63.0    22    0.5   179      2.5   925.9    0.00       0    75.9
 270    3:50   62.3    25    1.2   342      2.3   925.9    0.00       0    75.8
 270    4:00   61.3    24    1.7    18      2.9   925.9    0.00       0    75.7
 270    4:10   62.1    22    1.9    59      4.9   926.0    0.00       0    75.5
 270    4:20   64.6    20    3.9    50      7.2   926.0    0.00       0    75.4
 270    4:30   64.7    20    2.7    19      6.4   926.2    0.00       0    75.3
 270    4:40   59.9    25    2.2   280      4.7   926.4    0.00       0    75.2
 270    4:50   58.2    27    1.6   180      5.8   926.5    0.00       0    75.1
 270    5:00   60.1    25    3.3   152      5.4   926.4    0.00       0    75.0
 270    5:10   61.3    24    2.7   149      3.7   926.5    0.00       0    74.9
 270    5:20   61.6    23    1.8   145      2.8   926.5    0.00       1    74.8
 270    5:30   61.0    26    1.0     2      2.6   926.7    0.00       3    74.6
 270    5:40   58.7    28    0.5   328      1.9   926.8    0.00       4    74.5
 270    5:50   59.6    26    2.3   105      3.5   926.8    0.00       9    74.4
 270    6:00   61.2    24    3.4   125      5.0   926.8    0.00      16    74.3
 270    6:10   62.9    23    2.8   133      6.2   927.0    0.00      44    74.2
 270    6:20   64.8    23    1.6   116      4.5   927.2    0.00      78    74.2
 270    6:30   64.7    24    1.1   270      2.0   927.5    0.00     121    74.1

Return to Pahrump, Nevada graphs page.


Western Regional Climate Center,wrcc@dri.edu